createdAt,value
2018-04-06T00:02:09.434Z,2.90
2018-04-06T00:04:37.616Z,2.70
2018-04-06T00:07:05.737Z,2.50
2018-04-06T00:09:33.881Z,2.15
2018-04-06T00:12:05.584Z,2.15
2018-04-06T00:14:33.752Z,2.55
2018-04-06T00:17:01.946Z,1.77
2018-04-06T00:19:30.091Z,1.95
2018-04-06T00:21:58.278Z,2.15
2018-04-06T00:24:26.437Z,2.80
2018-04-06T00:26:54.581Z,2.20
2018-04-06T00:29:22.734Z,2.97
2018-04-06T00:31:54.859Z,2.95
2018-04-06T00:34:29.317Z,3.33
2018-04-06T00:36:57.492Z,2.58
2018-04-06T00:39:29.097Z,3.40
2018-04-06T00:41:57.383Z,3.05
2018-04-06T00:44:25.576Z,2.35
2018-04-06T00:46:53.728Z,2.70
2018-04-06T00:49:21.875Z,2.55
2018-04-06T00:51:50.904Z,2.95
2018-04-06T00:54:19.093Z,3.35
2018-04-06T00:56:47.250Z,2.33
2018-04-06T00:59:15.413Z,2.85
2018-04-06T01:01:43.608Z,2.33
2018-04-06T01:04:11.770Z,2.78
2018-04-06T01:06:39.901Z,2.47
2018-04-06T01:09:08.082Z,2.70
2018-04-06T01:11:36.294Z,3.28
2018-04-06T01:14:04.448Z,3.20
2018-04-06T01:16:33.353Z,3.10
2018-04-06T01:19:01.507Z,3.10
2018-04-06T01:21:29.815Z,2.92
2018-04-06T01:23:57.990Z,2.72
2018-04-06T01:26:26.157Z,3.65
2018-04-06T01:28:54.317Z,2.53
2018-04-06T01:31:23.232Z,2.97
2018-04-06T01:33:51.413Z,3.40
2018-04-06T01:36:20.309Z,2.75
2018-04-06T01:38:48.533Z,2.65
2018-04-06T01:41:16.686Z,3.17
2018-04-06T01:43:45.725Z,4.03
2018-04-06T01:46:13.859Z,3.90
2018-04-06T01:48:42.033Z,8.07
2018-04-06T01:51:10.193Z,10.90
2018-04-06T01:53:38.343Z,3.67
2018-04-06T01:56:06.509Z,3.60
2018-04-06T01:58:34.655Z,3.30
2018-04-06T02:01:03.583Z,3.92
2018-04-06T02:03:31.735Z,4.45
2018-04-06T02:05:59.915Z,3.90
2018-04-06T02:08:28.080Z,3.72
2018-04-06T02:10:56.229Z,3.67
2018-04-06T02:13:24.414Z,3.35
2018-04-06T02:15:52.599Z,8.85
2018-04-06T02:18:20.767Z,4.87
2018-04-06T02:20:49.384Z,4.25
2018-04-06T02:23:17.530Z,3.80
2018-04-06T02:25:45.682Z,4.50
2018-04-06T02:28:13.963Z,4.00
2018-04-06T02:30:42.117Z,4.30
2018-04-06T02:33:10.264Z,3.58
2018-04-06T02:35:38.421Z,4.05
2018-04-06T02:38:06.570Z,5.40
2018-04-06T02:40:34.719Z,4.57
2018-04-06T02:43:02.924Z,4.57
2018-04-06T02:45:31.907Z,3.53
2018-04-06T02:48:00.050Z,3.97
2018-04-06T02:50:28.212Z,3.97
2018-04-06T02:52:56.498Z,3.83
2018-04-06T02:55:24.638Z,5.30
2018-04-06T02:57:52.789Z,4.37
2018-04-06T03:00:20.945Z,6.15
2018-04-06T03:02:49.139Z,7.40
2018-04-06T03:05:17.288Z,3.95
2018-04-06T03:07:46.304Z,4.20
2018-04-06T03:10:14.485Z,4.40
2018-04-06T03:12:43.882Z,5.00
2018-04-06T03:15:12.032Z,4.50
2018-04-06T03:17:40.183Z,4.50
2018-04-06T03:20:08.331Z,4.30
2018-04-06T03:22:36.587Z,4.75
2018-04-06T03:25:04.769Z,5.35
2018-04-06T03:27:32.938Z,6.85
2018-04-06T03:30:01.081Z,5.62
2018-04-06T03:32:30.082Z,4.78
2018-04-06T03:34:59.004Z,6.55
2018-04-06T03:37:27.174Z,5.00
2018-04-06T03:39:55.334Z,4.15
2018-04-06T03:42:23.614Z,4.28
2018-04-06T03:44:51.794Z,4.45
2018-04-06T03:47:19.994Z,5.55
2018-04-06T03:49:48.178Z,4.50
2018-04-06T03:52:16.328Z,5.07
2018-04-06T03:54:44.479Z,4.70
2018-04-06T03:57:12.666Z,6.43
2018-04-06T03:59:40.860Z,5.20
2018-04-06T04:02:09.377Z,5.35
2018-04-06T04:04:37.538Z,5.53
2018-04-06T04:07:05.683Z,6.05
2018-04-06T04:09:34.118Z,6.85
2018-04-06T04:12:03.146Z,5.78
2018-04-06T04:14:31.537Z,6.00
2018-04-06T04:16:59.697Z,7.32
2018-04-06T04:19:27.852Z,8.13
2018-04-06T04:21:56.044Z,6.93
2018-04-06T04:24:24.193Z,7.03
2018-04-06T04:26:53.240Z,7.18
2018-04-06T04:29:21.394Z,6.70
2018-04-06T04:31:49.585Z,7.70
2018-04-06T04:34:17.769Z,8.20
2018-04-06T04:36:45.914Z,7.30
2018-04-06T04:39:14.082Z,7.65
2018-04-06T04:41:42.274Z,6.82
2018-04-06T04:44:10.435Z,7.30
2018-04-06T04:46:38.595Z,6.10
2018-04-06T04:49:06.798Z,6.95
2018-04-06T04:51:37.467Z,7.03
2018-04-06T04:54:05.645Z,6.80
2018-04-06T04:56:33.801Z,6.97
2018-04-06T04:59:01.953Z,8.23
2018-04-06T05:01:30.229Z,7.45
2018-04-06T05:03:58.444Z,7.95
2018-04-06T05:06:26.656Z,9.38
2018-04-06T05:08:54.828Z,9.07
2018-04-06T05:11:23.004Z,7.55
2018-04-06T05:13:51.150Z,8.25
2018-04-06T05:16:19.321Z,7.07
2018-04-06T05:18:48.243Z,6.87
2018-04-06T05:21:16.424Z,7.65
2018-04-06T05:23:44.591Z,7.12
2018-04-06T05:26:12.772Z,8.57
2018-04-06T05:28:40.931Z,7.25
2018-04-06T05:31:09.086Z,7.95
2018-04-06T05:33:37.237Z,7.85
2018-04-06T05:36:05.398Z,8.10
2018-04-06T05:38:33.553Z,7.93
2018-04-06T05:41:01.741Z,7.28
2018-04-06T05:43:29.932Z,7.28
2018-04-06T05:45:58.159Z,7.70
2018-04-06T05:48:26.335Z,6.93
2018-04-06T05:50:54.490Z,6.32
2018-04-06T05:53:23.595Z,7.37
2018-04-06T05:55:51.961Z,7.32
2018-04-06T05:58:20.147Z,7.75
2018-04-06T06:00:49.083Z,7.00
2018-04-06T06:03:18.088Z,8.35
2018-04-06T06:05:46.230Z,8.63
2018-04-06T06:08:14.392Z,9.02
2018-04-06T06:10:42.560Z,9.88
2018-04-06T06:13:11.198Z,8.95
2018-04-06T06:15:39.358Z,9.65
2018-04-06T06:18:07.523Z,8.90
2018-04-06T06:20:35.719Z,7.75
2018-04-06T06:23:04.001Z,10.00
2018-04-06T06:25:32.172Z,8.68
2018-04-06T06:28:00.339Z,8.85
2018-04-06T06:30:28.491Z,8.70
2018-04-06T06:32:56.664Z,10.02
2018-04-06T06:35:24.816Z,11.23
2018-04-06T06:37:52.998Z,10.88
2018-04-06T06:40:21.166Z,9.70
2018-04-06T06:42:49.340Z,12.57
2018-04-06T06:45:17.527Z,10.15
2018-04-06T06:47:45.676Z,11.48
2018-04-06T06:50:13.834Z,12.98
2018-04-06T06:52:42.042Z,11.68
2018-04-06T06:55:10.195Z,10.50
2018-04-06T06:57:38.363Z,11.32
2018-04-06T07:00:06.544Z,10.27
2018-04-06T07:02:34.797Z,12.37
2018-04-06T07:05:03.034Z,11.50
2018-04-06T07:07:31.198Z,12.55
2018-04-06T07:09:59.387Z,11.88
2018-04-06T07:12:28.757Z,13.43
2018-04-06T07:14:56.922Z,13.07
2018-04-06T07:17:25.142Z,11.38
2018-04-06T07:19:54.190Z,13.23
2018-04-06T07:22:29.680Z,12.27
2018-04-06T07:24:57.916Z,12.77
2018-04-06T07:27:26.114Z,12.35
2018-04-06T07:29:54.277Z,12.65
2018-04-06T07:32:30.154Z,11.32
2018-04-06T07:35:11.202Z,11.95
2018-04-06T07:37:40.478Z,12.65
2018-04-06T07:40:13.391Z,11.77
2018-04-06T07:42:42.586Z,12.63
2018-04-06T07:45:11.995Z,13.95
2018-04-06T07:47:40.206Z,13.90
2018-04-06T07:50:09.130Z,12.50
2018-04-06T07:52:38.784Z,11.27
2018-04-06T07:55:06.961Z,11.60
2018-04-06T07:57:38.207Z,10.57
2018-04-06T08:00:06.388Z,11.48
2018-04-06T08:02:36.983Z,12.27
2018-04-06T08:05:05.207Z,12.13
2018-04-06T08:07:33.381Z,11.52
2018-04-06T08:10:03.683Z,9.75
2018-04-06T08:12:32.799Z,10.65
2018-04-06T08:15:01.711Z,10.63
2018-04-06T08:17:30.661Z,9.95
2018-04-06T08:19:58.933Z,10.45
2018-04-06T08:22:29.181Z,10.25
2018-04-06T08:24:57.448Z,11.77
2018-04-06T08:27:25.613Z,11.68
2018-04-06T08:29:53.836Z,10.55
2018-04-06T08:32:24.276Z,10.45
2018-04-06T08:34:52.461Z,10.50
2018-04-06T08:37:21.374Z,10.20
2018-04-06T08:39:50.429Z,10.15
2018-04-06T08:42:19.443Z,11.55
2018-04-06T08:44:47.652Z,10.07
2018-04-06T08:47:16.899Z,10.13
2018-04-06T08:49:45.818Z,10.38
2018-04-06T08:52:13.983Z,9.50
2018-04-06T08:54:42.194Z,9.60
2018-04-06T08:57:10.321Z,9.50
2018-04-06T08:59:38.570Z,9.98
2018-04-06T09:02:06.718Z,8.35
2018-04-06T09:04:34.870Z,8.75
2018-04-06T09:07:03.060Z,8.82
2018-04-06T09:09:31.299Z,8.35
2018-04-06T09:12:00.372Z,9.55
2018-04-06T09:14:28.530Z,8.30
2018-04-06T09:16:56.690Z,9.63
2018-04-06T09:19:24.858Z,8.52
2018-04-06T09:21:53.095Z,9.40
2018-04-06T09:24:22.092Z,8.73
2018-04-06T09:26:50.251Z,9.13
2018-04-06T09:29:18.429Z,6.70
2018-04-06T09:31:46.623Z,7.03
2018-04-06T09:34:15.546Z,6.25
2018-04-06T09:36:43.699Z,6.15
2018-04-06T09:39:11.848Z,7.95
2018-04-06T09:41:40.208Z,7.10
2018-04-06T09:44:08.349Z,7.12
2018-04-06T09:46:36.586Z,6.62
2018-04-06T09:49:05.521Z,6.53
2018-04-06T09:51:33.680Z,6.30
2018-04-06T09:54:02.483Z,6.78
2018-04-06T09:56:30.659Z,6.95
2018-04-06T09:58:58.837Z,6.47
2018-04-06T10:01:32.594Z,5.93
2018-04-06T10:04:01.410Z,5.90
2018-04-06T10:06:30.181Z,6.15
2018-04-06T10:08:59.204Z,5.90
2018-04-06T10:11:27.446Z,7.30
2018-04-06T10:13:56.378Z,6.28
2018-04-06T10:16:24.566Z,6.40
2018-04-06T10:18:52.753Z,7.57
2018-04-06T10:21:21.722Z,6.22
2018-04-06T10:23:49.880Z,6.80
2018-04-06T10:26:18.054Z,6.30
2018-04-06T10:28:46.248Z,6.85
2018-04-06T10:31:14.487Z,6.47
2018-04-06T10:33:42.673Z,7.60
2018-04-06T10:36:10.857Z,7.15
2018-04-06T10:38:39.054Z,6.72
2018-04-06T10:41:07.245Z,7.15
2018-04-06T10:43:36.209Z,5.37
2018-04-06T10:46:04.373Z,5.82
2018-04-06T10:48:32.546Z,6.05
2018-04-06T10:51:00.719Z,6.30
2018-04-06T10:53:29.076Z,6.62
2018-04-06T10:55:57.988Z,6.85
2018-04-06T10:58:26.376Z,7.03
2018-04-06T11:00:54.916Z,6.97
2018-04-06T11:03:23.239Z,5.45
2018-04-06T11:05:51.402Z,6.00
2018-04-06T11:08:19.610Z,5.93
2018-04-06T11:10:47.817Z,5.05
2018-04-06T11:13:15.993Z,5.28
2018-04-06T11:15:44.246Z,5.75
2018-04-06T11:18:12.475Z,5.12
2018-04-06T11:20:40.748Z,5.60
2018-04-06T11:23:08.940Z,4.75
2018-04-06T11:25:37.108Z,4.45
2018-04-06T11:28:05.389Z,5.90
2018-04-06T11:30:33.576Z,5.07
2018-04-06T11:33:02.101Z,5.37
2018-04-06T11:35:30.761Z,5.30
2018-04-06T11:38:00.186Z,5.82
2018-04-06T11:40:29.639Z,5.35
2018-04-06T11:42:59.354Z,5.55
2018-04-06T11:45:27.526Z,5.22
2018-04-06T11:47:55.899Z,5.85
2018-04-06T11:50:24.072Z,5.25
2018-04-06T11:52:52.324Z,5.30
2018-04-06T11:55:21.522Z,6.00
2018-04-06T11:57:49.973Z,5.65
2018-04-06T12:00:18.996Z,6.03
2018-04-06T12:02:48.211Z,5.37
2018-04-06T12:05:16.385Z,4.87
2018-04-06T12:07:44.581Z,5.18
2018-04-06T12:10:13.755Z,5.53
2018-04-06T12:12:46.873Z,5.72
2018-04-06T12:15:20.793Z,5.72
2018-04-06T12:17:50.317Z,6.18
2018-04-06T12:20:19.844Z,5.43
2018-04-06T12:22:53.454Z,5.43
2018-04-06T12:25:21.623Z,5.75
2018-04-06T12:27:49.774Z,6.40
2018-04-06T12:30:18.190Z,5.30
2018-04-06T12:32:46.414Z,6.20
2018-04-06T12:35:15.338Z,5.40
2018-04-06T12:37:43.521Z,5.15
2018-04-06T12:40:12.599Z,5.90
2018-04-06T12:42:41.642Z,5.75
2018-04-06T12:45:10.593Z,5.22
2018-04-06T12:47:39.089Z,6.43
2018-04-06T12:50:08.148Z,5.82
2018-04-06T12:52:36.334Z,6.50
2018-04-06T12:55:06.083Z,6.85
2018-04-06T12:57:35.574Z,7.40
2018-04-06T13:00:03.737Z,5.87
2018-04-06T13:02:32.741Z,6.35
2018-04-06T13:05:00.893Z,5.70
2018-04-06T13:07:29.742Z,6.03
2018-04-06T13:09:58.168Z,5.47
2018-04-06T13:12:26.442Z,6.00
2018-04-06T13:14:54.619Z,6.53
2018-04-06T13:17:23.992Z,5.57
2018-04-06T13:19:52.457Z,5.32
2018-04-06T13:22:20.632Z,5.95
2018-04-06T13:24:48.814Z,5.68
2018-04-06T13:27:16.976Z,6.00
2018-04-06T13:29:45.151Z,5.95
2018-04-06T13:32:13.478Z,5.82
2018-04-06T13:34:41.636Z,5.70
2018-04-06T13:37:11.658Z,6.90
2018-04-06T13:39:40.681Z,7.68
2018-04-06T13:42:09.867Z,5.53
2018-04-06T13:44:38.065Z,6.45
2018-04-06T13:47:06.218Z,6.40
2018-04-06T13:49:34.373Z,6.20
2018-04-06T13:52:03.447Z,6.40
2018-04-06T13:54:32.388Z,6.00
2018-04-06T13:57:00.553Z,6.90
2018-04-06T13:59:28.710Z,5.97
2018-04-06T14:01:56.869Z,6.70
2018-04-06T14:04:25.019Z,5.53
2018-04-06T14:06:53.946Z,6.60
2018-04-06T14:09:22.152Z,6.83
2018-04-06T14:11:57.662Z,6.70
2018-04-06T14:14:26.083Z,6.50
2018-04-06T14:16:54.270Z,5.73
2018-04-06T14:19:22.442Z,7.10
2018-04-06T14:21:50.725Z,6.70
2018-04-06T14:24:18.867Z,7.90
2018-04-06T14:26:47.036Z,7.30
2018-04-06T14:29:15.180Z,8.27
2018-04-06T14:31:54.798Z,7.10
2018-04-06T14:34:22.957Z,8.20
2018-04-06T14:36:51.106Z,6.87
2018-04-06T14:39:19.358Z,8.30
2018-04-06T14:41:51.627Z,7.00
2018-04-06T14:44:19.799Z,6.80
2018-04-06T14:46:47.970Z,7.00
2018-04-06T14:49:16.127Z,6.50
2018-04-06T14:51:47.288Z,7.07
2018-04-06T14:54:15.505Z,7.00
2018-04-06T14:56:43.758Z,8.30
2018-04-06T14:59:12.753Z,6.63
2018-04-06T15:01:41.949Z,7.10
2018-04-06T15:04:10.144Z,7.07
2018-04-06T15:06:38.301Z,7.10
2018-04-06T15:09:08.256Z,7.27
2018-04-06T15:11:42.286Z,7.17
2018-04-06T15:14:11.209Z,7.67
2018-04-06T15:16:39.393Z,7.83
2018-04-06T15:19:08.528Z,6.27
2018-04-06T15:21:37.979Z,6.70
2018-04-06T15:24:06.162Z,8.60
2018-04-06T15:26:34.329Z,6.67
2018-04-06T15:29:02.484Z,6.70
2018-04-06T15:31:37.028Z,7.77
2018-04-06T15:34:06.266Z,7.00
2018-04-06T15:36:34.465Z,8.43
2018-04-06T15:39:04.829Z,6.37
2018-04-06T15:41:32.998Z,7.30
2018-04-06T15:44:01.172Z,8.00
2018-04-06T15:46:29.346Z,9.07
2018-04-06T15:48:57.558Z,7.53
2018-04-06T15:51:27.735Z,7.53
2018-04-06T15:53:55.906Z,8.10
2018-04-06T15:56:24.081Z,6.70
2018-04-06T15:58:53.141Z,7.20
2018-04-06T16:01:22.075Z,6.65
2018-04-06T16:03:50.273Z,7.70
2018-04-06T16:06:19.455Z,7.50
2018-04-06T16:08:48.504Z,6.30
2018-04-06T16:11:16.669Z,6.47
2018-04-06T16:13:45.177Z,7.07
2018-04-06T16:16:13.322Z,6.57
2018-04-06T16:18:42.520Z,7.30
2018-04-06T16:21:10.868Z,6.32
2018-04-06T16:23:39.052Z,5.32
2018-04-06T16:26:07.924Z,6.95
2018-04-06T16:28:36.945Z,6.87
2018-04-06T16:31:05.971Z,7.00
2018-04-06T16:33:34.177Z,6.82
2018-04-06T16:36:02.355Z,6.97
2018-04-06T16:38:30.530Z,7.00
2018-04-06T16:40:59.644Z,5.72
2018-04-06T16:43:27.894Z,6.35
2018-04-06T16:45:56.876Z,7.07
2018-04-06T16:48:25.852Z,6.65
2018-04-06T16:50:54.020Z,6.70
2018-04-06T16:53:22.193Z,7.00
2018-04-06T16:55:50.370Z,6.68
2018-04-06T16:58:19.313Z,6.65
2018-04-06T17:00:47.465Z,7.22
2018-04-06T17:03:15.731Z,7.30
2018-04-06T17:05:43.903Z,7.40
2018-04-06T17:08:12.858Z,9.00
2018-04-06T17:10:41.013Z,7.12
2018-04-06T17:13:09.260Z,6.55
2018-04-06T17:15:39.086Z,6.72
2018-04-06T17:18:07.272Z,4.72
2018-04-06T17:20:36.873Z,6.05
2018-04-06T17:23:05.106Z,5.15
2018-04-06T17:25:35.113Z,6.28
2018-04-06T17:28:03.367Z,5.07
2018-04-06T17:30:31.957Z,5.32
2018-04-06T17:33:12.584Z,5.18
2018-04-06T17:35:41.825Z,5.30
2018-04-06T17:38:10.267Z,5.30
2018-04-06T17:40:38.420Z,5.85
2018-04-06T17:43:07.033Z,6.35
2018-04-06T17:45:38.249Z,5.75
2018-04-06T17:48:08.054Z,5.20
2018-04-06T17:50:36.990Z,5.20
2018-04-06T17:53:10.389Z,6.25
2018-04-06T17:55:38.846Z,5.57
2018-04-06T17:58:07.507Z,6.35
2018-04-06T18:00:36.924Z,7.82
2018-04-06T18:03:08.853Z,6.40
2018-04-06T18:05:37.133Z,5.80
2018-04-06T18:08:05.278Z,6.20
2018-04-06T18:10:33.529Z,4.80
2018-04-06T18:13:04.419Z,5.75
2018-04-06T18:15:33.871Z,5.72
2018-04-06T18:18:02.025Z,5.40
2018-04-06T18:20:31.423Z,5.90
2018-04-06T18:22:59.721Z,6.28
2018-04-06T18:25:28.960Z,6.03
2018-04-06T18:27:57.109Z,6.70
2018-04-06T18:30:25.715Z,8.15
2018-04-06T18:32:53.882Z,6.18
2018-04-06T18:35:23.076Z,6.60
2018-04-06T18:37:51.257Z,6.85
2018-04-06T18:40:19.423Z,7.15
2018-04-06T18:42:51.040Z,6.32
2018-04-06T18:45:20.531Z,4.25
2018-04-06T18:47:48.826Z,4.10
2018-04-06T18:50:18.148Z,4.60
2018-04-06T18:52:47.430Z,4.28
2018-04-06T18:55:15.683Z,5.00
2018-04-06T18:57:44.714Z,4.10
2018-04-06T19:00:12.887Z,2.95
2018-04-06T19:02:41.155Z,3.95
2018-04-06T19:05:09.315Z,3.00
2018-04-06T19:07:37.469Z,3.65
2018-04-06T19:10:08.944Z,2.75
2018-04-06T19:12:37.201Z,3.08
2018-04-06T19:15:06.155Z,2.85
2018-04-06T19:17:34.836Z,3.40
2018-04-06T19:20:03.042Z,3.17
2018-04-06T19:22:31.266Z,3.00
2018-04-06T19:24:59.478Z,2.97
2018-04-06T19:27:28.015Z,2.75
2018-04-06T19:29:56.437Z,2.95
2018-04-06T19:32:26.910Z,2.78
2018-04-06T19:34:55.101Z,3.22
2018-04-06T19:37:24.200Z,3.25
2018-04-06T19:39:53.110Z,3.62
2018-04-06T19:42:21.388Z,2.60
2018-04-06T19:44:49.541Z,3.35
2018-04-06T19:47:18.531Z,3.42
2018-04-06T19:49:46.718Z,3.62
2018-04-06T19:52:14.876Z,3.50
2018-04-06T19:54:43.012Z,4.30
2018-04-06T19:57:12.030Z,6.18
2018-04-06T19:59:40.191Z,5.28
2018-04-06T20:02:10.233Z,4.20
2018-04-06T20:04:38.427Z,2.95
2018-04-06T20:07:06.627Z,3.30
2018-04-06T20:09:35.488Z,3.67
2018-04-06T20:12:04.759Z,3.42
2018-04-06T20:14:34.959Z,3.17
2018-04-06T20:17:03.326Z,3.20
2018-04-06T20:19:31.523Z,3.55
2018-04-06T20:22:00.024Z,2.72
2018-04-06T20:24:28.172Z,3.97
2018-04-06T20:26:57.107Z,3.40
2018-04-06T20:29:25.274Z,3.80
2018-04-06T20:31:57.861Z,4.65
2018-04-06T20:34:26.109Z,3.50
2018-04-06T20:36:54.270Z,4.15
2018-04-06T20:39:23.322Z,3.30
2018-04-06T20:41:51.478Z,3.97
2018-04-06T20:44:19.634Z,3.90
2018-04-06T20:46:47.792Z,4.85
2018-04-06T20:49:16.062Z,3.95
2018-04-06T20:51:44.379Z,3.92
2018-04-06T20:54:12.588Z,4.57
2018-04-06T20:56:40.754Z,4.45
2018-04-06T20:59:09.838Z,3.80
2018-04-06T21:01:38.077Z,4.90
2018-04-06T21:04:06.317Z,4.07
2018-04-06T21:06:34.520Z,6.18
2018-04-06T21:09:04.104Z,5.60
2018-04-06T21:11:34.615Z,5.05
2018-04-06T21:14:02.936Z,5.72
2018-04-06T21:16:31.178Z,5.12
2018-04-06T21:19:03.121Z,5.10
2018-04-06T21:21:35.152Z,4.60
2018-04-06T21:24:03.330Z,5.00
2018-04-06T21:26:32.255Z,4.60
2018-04-06T21:29:01.959Z,5.75
2018-04-06T21:31:31.268Z,4.97
2018-04-06T21:34:02.204Z,5.32
2018-04-06T21:36:33.533Z,6.18
2018-04-06T21:39:01.849Z,3.80
2018-04-06T21:41:31.442Z,4.78
2018-04-06T21:44:00.524Z,5.12
2018-04-06T21:46:28.798Z,5.20
2018-04-06T21:48:59.147Z,6.10
2018-04-06T21:51:31.027Z,6.93
2018-04-06T21:54:00.809Z,4.65
2018-04-06T21:56:29.115Z,5.43
2018-04-06T21:58:57.306Z,4.65
2018-04-06T22:01:25.733Z,4.82
2018-04-06T22:03:54.334Z,5.25
2018-04-06T22:06:22.504Z,5.93
2018-04-06T22:08:52.618Z,6.30
2018-04-06T22:11:21.885Z,6.62
2018-04-06T22:13:52.156Z,4.53
2018-04-06T22:16:20.443Z,5.60
2018-04-06T22:18:48.614Z,6.22
2018-04-06T22:21:17.208Z,5.82
2018-04-06T22:23:46.162Z,5.40
2018-04-06T22:26:14.568Z,5.12
2018-04-06T22:28:43.936Z,5.45
2018-04-06T22:31:12.140Z,6.22
2018-04-06T22:33:42.689Z,5.55
2018-04-06T22:36:11.635Z,5.30
2018-04-06T22:38:40.685Z,5.85
2018-04-06T22:41:09.254Z,5.90
2018-04-06T22:43:39.158Z,6.35
2018-04-06T22:46:08.533Z,6.45
2018-04-06T22:48:37.518Z,8.05
2018-04-06T22:51:09.140Z,6.78
2018-04-06T22:53:38.350Z,5.62
2018-04-06T22:56:08.057Z,5.45
2018-04-06T22:58:36.285Z,6.22
2018-04-06T23:01:05.433Z,5.53
2018-04-06T23:03:34.773Z,5.18
2018-04-06T23:06:04.244Z,6.10
2018-04-06T23:08:35.719Z,6.62
2018-04-06T23:11:04.888Z,5.72
2018-04-06T23:13:36.428Z,6.87
2018-04-06T23:16:06.460Z,7.07
2018-04-06T23:18:34.735Z,6.43
2018-04-06T23:21:03.963Z,6.00
2018-04-06T23:23:32.204Z,5.85
2018-04-06T23:26:00.421Z,5.45
2018-04-06T23:28:29.580Z,5.80
2018-04-06T23:30:57.743Z,5.70
2018-04-06T23:33:25.882Z,5.93
2018-04-06T23:35:54.906Z,5.72
2018-04-06T23:38:23.120Z,7.43
2018-04-06T23:40:51.305Z,6.50
2018-04-06T23:43:19.544Z,6.82
2018-04-06T23:45:47.716Z,6.62
2018-04-06T23:48:16.416Z,6.80
2018-04-06T23:50:44.590Z,6.35
2018-04-06T23:53:13.908Z,5.93
2018-04-06T23:55:43.853Z,7.25
2018-04-06T23:58:12.069Z,6.00
